• Join FlightAware (Why Join?)
  • Login
  • US Flag 
07:03PM EDT


 

Airport Tracker/Info


-or-


 

Live Flight TrackerFlight Track Log ✈ ASQ6041 ✈ 31-Aug-2013 ✈ KDEN - KLNK

Flight Track Log - Related Links

Times and Time Zones

All times are in EDT time to prevent confusion due to time zone crossing. See the ASQ6041 flight status page for this flight to view local times or setup timezone preferences in your user account.

Time Position Orientation Groundspeed Altitude Reporting Facility
EDT Latitude Longitude Course Direction KTS MPH feet Rate Location/Type
12:36PM 39.9333 -104.6500 90° East 220 253 7,400  Level Denver TRACON
12:37PM 39.9500 -104.5667 75° East 280 322 8,700 1,260 Climbing Denver TRACON
12:38PM 39.9500 -104.4667 90° East 291 335 10,000 1,200 Climbing Denver TRACON
12:39PM 39.8667 -104.1163 90° East  Level FlightAware Approximate
12:39PM 39.9500 -104.3667 90° East 311 358 11,200  Level Denver TRACON
12:40PM 39.8667 -103.9784 90° East  Level FlightAware Approximate
12:40PM 39.9361 -104.2619 100° East 316 364 12,000  Level Denver Center
12:41PM 39.8667 -103.8405 90° East  Level FlightAware Approximate
12:41PM 39.9239 -104.1322 97° East 358 412 13,200  Level Denver Center
12:42PM 39.9119 -104.0236 98° East 361 415 14,500 1,380 Climbing Denver Center
12:43PM 39.8961 -103.8589 97° East 375 432 16,100 1,380 Climbing Denver Center
12:44PM 39.8847 -103.7258 96° East 377 434 17,400 1,020 Climbing Denver Center
12:46PM 39.9183 -103.4447 81° East 401 461 19,400 1,080 Climbing Denver Center
12:47PM 39.9481 -103.2706 77° East 411 473 20,900 1,440 Climbing Denver Center
12:48PM 39.9728 -103.1267 77° East 408 470 22,400 1,320 Climbing Denver Center
12:49PM 39.9972 -102.9819 78° East 409 471 23,700 1,320 Climbing Denver Center
12:50PM 40.0206 -102.8389 78° East 405 466 25,200 1,440 Climbing Denver Center
12:51PM 40.0478 -102.6797 77° East 402 463 26,700 840 Climbing Denver Center
12:52PM 40.0694 -102.5372 79° East 416 479 27,000 660 Climbing Denver Center
12:53PM 40.0978 -102.3636 78° East 436 502 28,100 960 Climbing Denver Center
12:54PM 40.1225 -102.2142 78° East 439 505 29,000 900 Climbing Denver Center
12:55PM 40.1447 -102.0603 79° East 447 514 30,000 960 Climbing Denver Center
12:56PM 40.1742 -101.8831 78° East 450 518 31,000 480 Climbing Denver Center
12:57PM 40.1981 -101.7250 79° East 461 531 31,000  Level Denver Center
12:58PM 40.2278 -101.5292 79° East 487 560 31,000  Level Denver Center
12:59PM 40.2542 -101.3600 78° East 496 571 31,000  Level Denver Center
01:00PM 40.2836 -101.1608 79° East 500 575 31,000  Level Denver Center
01:01PM 40.3083 -100.9914 79° East 498 573 31,000  Level Denver Center
01:02PM 40.3375 -100.7947 79° East 496 571 31,000  Level Denver Center
01:03PM 40.3614 -100.6256 79° East 496 571 31,000  Level Denver Center
01:05PM 40.3897 -100.4300 79° East 493 567 31,000  Level Denver Center
01:06PM 40.4136 -100.2617 79° East 493 567 31,000  Level Denver Center
01:07PM 40.4408 -100.0683 79° East 487 560 31,000  Level Denver Center
01:08PM 40.4725 -99.8436 79° East 484 557 31,000  Level Denver Center
01:09PM 40.4950 -99.6700 80° East 484 557 31,000  Level Denver Center
01:10PM 40.5189 -99.4969 80° East 482 555 31,000  Level Denver Center
01:11PM 40.5419 -99.3222 80° East 487 560 31,000  Level Denver Center
01:12PM 40.5647 -99.1492 80° East 484 557 31,000  Level Denver Center
01:13PM 40.5914 -98.9411 80° East 484 557 31,000 -420 Level Denver Center
01:14PM 40.6136 -98.7678 80° East 485 558 30,200 -1,680 Descending Denver Center
01:15PM 40.6358 -98.5911 81° East 491 565 27,600 -2,520 Descending Denver Center
01:16PM 40.6567 -98.4197 81° East 483 556 25,000 -2,700 Descending Denver Center
01:17PM 40.6856 -98.1847 81° East 472 543 21,300 -2,640 Descending Minneapolis Center
01:18PM 40.7053 -98.0275 81° East 451 519 18,800 -2,400 Descending Minneapolis Center
01:20PM 40.7236 -97.8753 81° East 431 496 16,400 -2,460 Descending Minneapolis Center
01:21PM 40.7208 -97.6919 91° East 401 461 13,700 -2,460 Descending Minneapolis Center
01:21PM 40.7342 -97.5864 81° East 396 456 12,100 -1,920 Descending Minneapolis Center
01:22PM 40.7647 -97.5292 55° Northeast 398 458 11,400 -1,140 Descending Minneapolis Center
01:22PM 40.7519 -97.4475 102° East 388 447 11,000 -540 Descending Minneapolis Center
01:23PM 40.7781 -97.3933 58° Northeast 379 436 10,900 -720 Descending Minneapolis Center
01:23PM 40.7542 -97.3292 116° Southeast 315 362 10,300 -1,380 Descending Minneapolis Center
01:24PM 40.7708 -97.2786 66° East 320 368 9,500 -1,680 Descending Minneapolis Center
01:25PM 40.7658 -97.1708 93° East 302 348 7,700 -1,680 Descending Minneapolis Center
01:26PM 40.7606 -97.0636 94° East 295 339 6,100 -1,500 Descending Minneapolis Center
01:27PM 40.7544 -96.9389 94° East 288 331 4,400 -1,380 Descending Minneapolis Center
01:28PM 40.7542 -96.8233 90° East 277 319 3,000 -1,140 Descending Minneapolis Center
01:29PM 40.7789 -96.7672 60° Northeast 212 244 2,100 -540 Descending Minneapolis Center
01:30PM 40.8128 -96.7478 23° Northeast 189 217 1,900 -240 Descending Minneapolis Center